sensor_id;sensor_type;location;lat;lon;timestamp;P1;durP1;ratioP1;P2;durP2;ratioP2
51883;SDS011;37915;53.254;6.598;2023-07-30T00:01:58;15.48;;;6.75;;
51883;SDS011;37915;53.254;6.598;2023-07-30T00:04:24;17.65;;;6.85;;
51883;SDS011;37915;53.254;6.598;2023-07-30T00:06:50;21.98;;;5.88;;
51883;SDS011;37915;53.254;6.598;2023-07-30T00:09:15;17.65;;;5.45;;
51883;SDS011;37915;53.254;6.598;2023-07-30T00:11:41;21.30;;;5.53;;
51883;SDS011;37915;53.254;6.598;2023-07-30T00:14:07;19.95;;;6.68;;
51883;SDS011;37915;53.254;6.598;2023-07-30T00:16:33;19.38;;;5.70;;
51883;SDS011;37915;53.254;6.598;2023-07-30T00:18:58;13.27;;;5.97;;
51883;SDS011;37915;53.254;6.598;2023-07-30T00:21:24;19.67;;;6.80;;
51883;SDS011;37915;53.254;6.598;2023-07-30T00:23:50;21.35;;;6.65;;
51883;SDS011;37915;53.254;6.598;2023-07-30T00:26:15;19.05;;;5.93;;
51883;SDS011;37915;53.254;6.598;2023-07-30T00:28:41;16.55;;;6.53;;
51883;SDS011;37915;53.254;6.598;2023-07-30T00:31:06;22.05;;;6.95;;
51883;SDS011;37915;53.254;6.598;2023-07-30T00:33:32;18.17;;;6.38;;
51883;SDS011;37915;53.254;6.598;2023-07-30T00:35:58;18.77;;;6.03;;
51883;SDS011;37915;53.254;6.598;2023-07-30T00:38:24;20.85;;;6.18;;
51883;SDS011;37915;53.254;6.598;2023-07-30T00:40:50;18.98;;;6.88;;
51883;SDS011;37915;53.254;6.598;2023-07-30T00:43:15;20.13;;;6.47;;
51883;SDS011;37915;53.254;6.598;2023-07-30T00:45:42;20.48;;;6.40;;
51883;SDS011;37915;53.254;6.598;2023-07-30T00:48:10;19.63;;;5.88;;
51883;SDS011;37915;53.254;6.598;2023-07-30T00:50:36;21.35;;;5.88;;
51883;SDS011;37915;53.254;6.598;2023-07-30T00:53:03;18.77;;;6.18;;
51883;SDS011;37915;53.254;6.598;2023-07-30T00:55:29;20.13;;;6.68;;
51883;SDS011;37915;53.254;6.598;2023-07-30T00:57:55;15.98;;;6.78;;
51883;SDS011;37915;53.254;6.598;2023-07-30T01:00:22;20.05;;;6.13;;
51883;SDS011;37915;53.254;6.598;2023-07-30T01:02:50;16.30;;;6.05;;
51883;SDS011;37915;53.254;6.598;2023-07-30T01:05:16;16.83;;;6.13;;
51883;SDS011;37915;53.254;6.598;2023-07-30T01:07:42;25.05;;;6.72;;
51883;SDS011;37915;53.254;6.598;2023-07-30T01:10:08;23.15;;;6.57;;
51883;SDS011;37915;53.254;6.598;2023-07-30T01:12:34;17.85;;;5.38;;
51883;SDS011;37915;53.254;6.598;2023-07-30T01:15:00;17.90;;;6.30;;
51883;SDS011;37915;53.254;6.598;2023-07-30T01:17:27;14.35;;;5.65;;
51883;SDS011;37915;53.254;6.598;2023-07-30T01:19:53;20.25;;;7.00;;
51883;SDS011;37915;53.254;6.598;2023-07-30T01:22:22;16.02;;;5.57;;
51883;SDS011;37915;53.254;6.598;2023-07-30T01:24:48;23.90;;;6.78;;
51883;SDS011;37915;53.254;6.598;2023-07-30T01:27:16;19.48;;;5.90;;
51883;SDS011;37915;53.254;6.598;2023-07-30T01:29:49;17.63;;;5.90;;
51883;SDS011;37915;53.254;6.598;2023-07-30T01:32:20;23.23;;;6.05;;
51883;SDS011;37915;53.254;6.598;2023-07-30T01:34:52;23.08;;;6.60;;
51883;SDS011;37915;53.254;6.598;2023-07-30T01:37:19;20.27;;;5.90;;
51883;SDS011;37915;53.254;6.598;2023-07-30T01:39:45;15.18;;;6.22;;
51883;SDS011;37915;53.254;6.598;2023-07-30T01:42:13;17.60;;;5.13;;
51883;SDS011;37915;53.254;6.598;2023-07-30T01:44:39;21.90;;;6.68;;
51883;SDS011;37915;53.254;6.598;2023-07-30T01:47:05;19.65;;;6.47;;
51883;SDS011;37915;53.254;6.598;2023-07-30T01:49:31;13.18;;;5.18;;
51883;SDS011;37915;53.254;6.598;2023-07-30T01:51:57;22.15;;;6.20;;
51883;SDS011;37915;53.254;6.598;2023-07-30T01:54:23;15.93;;;5.75;;
51883;SDS011;37915;53.254;6.598;2023-07-30T01:56:49;14.27;;;5.82;;
51883;SDS011;37915;53.254;6.598;2023-07-30T01:59:15;20.15;;;6.28;;
51883;SDS011;37915;53.254;6.598;2023-07-30T02:01:43;16.00;;;5.15;;
51883;SDS011;37915;53.254;6.598;2023-07-30T02:04:09;15.50;;;5.13;;
51883;SDS011;37915;53.254;6.598;2023-07-30T02:06:35;25.23;;;6.40;;
51883;SDS011;37915;53.254;6.598;2023-07-30T02:09:01;17.23;;;5.75;;
51883;SDS011;37915;53.254;6.598;2023-07-30T02:11:27;18.35;;;5.47;;
51883;SDS011;37915;53.254;6.598;2023-07-30T02:13:53;18.70;;;5.63;;
51883;SDS011;37915;53.254;6.598;2023-07-30T02:16:19;19.58;;;5.57;;
51883;SDS011;37915;53.254;6.598;2023-07-30T02:18:45;21.10;;;6.15;;
51883;SDS011;37915;53.254;6.598;2023-07-30T02:21:10;18.50;;;5.75;;
51883;SDS011;37915;53.254;6.598;2023-07-30T02:23:36;20.60;;;5.93;;
51883;SDS011;37915;53.254;6.598;2023-07-30T02:26:02;19.23;;;5.80;;
51883;SDS011;37915;53.254;6.598;2023-07-30T02:28:27;18.73;;;5.40;;
51883;SDS011;37915;53.254;6.598;2023-07-30T02:30:53;16.98;;;4.95;;
51883;SDS011;37915;53.254;6.598;2023-07-30T02:33:18;16.50;;;5.50;;
51883;SDS011;37915;53.254;6.598;2023-07-30T02:35:44;19.45;;;5.63;;
51883;SDS011;37915;53.254;6.598;2023-07-30T02:38:10;19.95;;;5.60;;
51883;SDS011;37915;53.254;6.598;2023-07-30T02:40:35;18.92;;;6.20;;
51883;SDS011;37915;53.254;6.598;2023-07-30T02:43:01;14.70;;;4.95;;
51883;SDS011;37915;53.254;6.598;2023-07-30T02:45:27;16.20;;;5.72;;
51883;SDS011;37915;53.254;6.598;2023-07-30T02:47:52;20.00;;;5.43;;
51883;SDS011;37915;53.254;6.598;2023-07-30T02:50:18;22.23;;;5.55;;
51883;SDS011;37915;53.254;6.598;2023-07-30T02:52:44;20.40;;;6.85;;
51883;SDS011;37915;53.254;6.598;2023-07-30T02:55:10;22.60;;;5.63;;
51883;SDS011;37915;53.254;6.598;2023-07-30T02:57:35;14.73;;;5.00;;
51883;SDS011;37915;53.254;6.598;2023-07-30T03:00:01;19.90;;;5.85;;
51883;SDS011;37915;53.254;6.598;2023-07-30T03:02:29;21.90;;;6.25;;
51883;SDS011;37915;53.254;6.598;2023-07-30T03:04:55;23.60;;;6.30;;
51883;SDS011;37915;53.254;6.598;2023-07-30T03:07:21;33.17;;;6.72;;
51883;SDS011;37915;53.254;6.598;2023-07-30T03:09:46;22.42;;;5.68;;
51883;SDS011;37915;53.254;6.598;2023-07-30T03:12:12;19.45;;;5.22;;
51883;SDS011;37915;53.254;6.598;2023-07-30T03:14:38;25.75;;;6.18;;
51883;SDS011;37915;53.254;6.598;2023-07-30T03:17:04;21.13;;;5.75;;
51883;SDS011;37915;53.254;6.598;2023-07-30T03:19:30;23.27;;;6.35;;
51883;SDS011;37915;53.254;6.598;2023-07-30T03:21:56;16.52;;;5.65;;
51883;SDS011;37915;53.254;6.598;2023-07-30T03:24:22;23.73;;;5.68;;
51883;SDS011;37915;53.254;6.598;2023-07-30T03:26:47;20.10;;;6.18;;
51883;SDS011;37915;53.254;6.598;2023-07-30T03:29:14;25.63;;;4.80;;
51883;SDS011;37915;53.254;6.598;2023-07-30T03:31:40;20.35;;;5.25;;
51883;SDS011;37915;53.254;6.598;2023-07-30T03:34:05;19.85;;;5.80;;
51883;SDS011;37915;53.254;6.598;2023-07-30T03:36:31;21.02;;;5.68;;
51883;SDS011;37915;53.254;6.598;2023-07-30T03:38:57;21.25;;;5.13;;
51883;SDS011;37915;53.254;6.598;2023-07-30T03:41:23;19.45;;;5.65;;
51883;SDS011;37915;53.254;6.598;2023-07-30T03:43:48;19.90;;;5.18;;
51883;SDS011;37915;53.254;6.598;2023-07-30T03:46:14;17.80;;;5.32;;
51883;SDS011;37915;53.254;6.598;2023-07-30T03:48:40;20.80;;;5.65;;
51883;SDS011;37915;53.254;6.598;2023-07-30T03:51:05;25.25;;;5.90;;
51883;SDS011;37915;53.254;6.598;2023-07-30T03:53:32;21.20;;;5.30;;
51883;SDS011;37915;53.254;6.598;2023-07-30T03:55:58;22.17;;;5.25;;
51883;SDS011;37915;53.254;6.598;2023-07-30T03:58:23;17.13;;;5.43;;
51883;SDS011;37915;53.254;6.598;2023-07-30T04:00:49;26.25;;;6.63;;
51883;SDS011;37915;53.254;6.598;2023-07-30T04:03:15;20.58;;;5.50;;
51883;SDS011;37915;53.254;6.598;2023-07-30T04:05:41;18.48;;;5.32;;
51883;SDS011;37915;53.254;6.598;2023-07-30T04:08:06;28.48;;;5.07;;
51883;SDS011;37915;53.254;6.598;2023-07-30T04:10:32;16.25;;;5.68;;
51883;SDS011;37915;53.254;6.598;2023-07-30T04:12:58;15.30;;;5.20;;
51883;SDS011;37915;53.254;6.598;2023-07-30T04:15:24;25.77;;;5.53;;
51883;SDS011;37915;53.254;6.598;2023-07-30T04:17:50;15.07;;;5.00;;
51883;SDS011;37915;53.254;6.598;2023-07-30T04:20:16;16.73;;;4.65;;
51883;SDS011;37915;53.254;6.598;2023-07-30T04:22:43;19.23;;;4.78;;
51883;SDS011;37915;53.254;6.598;2023-07-30T04:25:08;21.08;;;5.13;;
51883;SDS011;37915;53.254;6.598;2023-07-30T04:27:36;21.70;;;4.70;;
51883;SDS011;37915;53.254;6.598;2023-07-30T04:30:02;22.10;;;5.28;;
51883;SDS011;37915;53.254;6.598;2023-07-30T04:32:29;16.27;;;5.32;;
51883;SDS011;37915;53.254;6.598;2023-07-30T04:34:55;20.40;;;5.10;;
51883;SDS011;37915;53.254;6.598;2023-07-30T04:37:20;17.52;;;4.97;;
51883;SDS011;37915;53.254;6.598;2023-07-30T04:39:47;22.33;;;5.68;;
51883;SDS011;37915;53.254;6.598;2023-07-30T04:42:12;19.70;;;5.38;;
51883;SDS011;37915;53.254;6.598;2023-07-30T04:44:39;20.10;;;4.38;;
51883;SDS011;37915;53.254;6.598;2023-07-30T04:47:05;21.25;;;4.85;;
51883;SDS011;37915;53.254;6.598;2023-07-30T04:49:32;23.40;;;5.90;;
51883;SDS011;37915;53.254;6.598;2023-07-30T04:51:58;18.45;;;5.60;;
51883;SDS011;37915;53.254;6.598;2023-07-30T04:54:23;15.65;;;4.45;;
51883;SDS011;37915;53.254;6.598;2023-07-30T04:56:49;17.10;;;5.00;;
51883;SDS011;37915;53.254;6.598;2023-07-30T04:59:15;14.13;;;4.22;;
51883;SDS011;37915;53.254;6.598;2023-07-30T05:01:40;16.40;;;4.78;;
51883;SDS011;37915;53.254;6.598;2023-07-30T05:04:06;13.68;;;3.95;;
51883;SDS011;37915;53.254;6.598;2023-07-30T05:06:32;15.82;;;5.15;;
51883;SDS011;37915;53.254;6.598;2023-07-30T05:08:58;18.95;;;4.93;;
51883;SDS011;37915;53.254;6.598;2023-07-30T05:11:23;17.70;;;4.72;;
51883;SDS011;37915;53.254;6.598;2023-07-30T05:13:49;14.43;;;3.88;;
51883;SDS011;37915;53.254;6.598;2023-07-30T05:16:14;14.75;;;3.65;;
51883;SDS011;37915;53.254;6.598;2023-07-30T05:18:40;15.73;;;4.50;;
51883;SDS011;37915;53.254;6.598;2023-07-30T05:21:06;19.67;;;4.30;;
51883;SDS011;37915;53.254;6.598;2023-07-30T05:23:31;15.68;;;4.70;;
51883;SDS011;37915;53.254;6.598;2023-07-30T05:25:57;14.35;;;3.75;;
51883;SDS011;37915;53.254;6.598;2023-07-30T05:28:23;17.63;;;4.22;;
51883;SDS011;37915;53.254;6.598;2023-07-30T05:30:48;18.75;;;3.85;;
51883;SDS011;37915;53.254;6.598;2023-07-30T05:33:14;15.77;;;4.07;;
51883;SDS011;37915;53.254;6.598;2023-07-30T05:35:40;14.32;;;3.90;;
51883;SDS011;37915;53.254;6.598;2023-07-30T05:38:05;14.27;;;4.18;;
51883;SDS011;37915;53.254;6.598;2023-07-30T05:40:31;13.63;;;4.03;;
51883;SDS011;37915;53.254;6.598;2023-07-30T05:42:56;16.98;;;4.15;;
51883;SDS011;37915;53.254;6.598;2023-07-30T05:45:22;12.20;;;4.03;;
51883;SDS011;37915;53.254;6.598;2023-07-30T05:47:48;14.68;;;3.92;;
51883;SDS011;37915;53.254;6.598;2023-07-30T05:50:13;16.52;;;3.78;;
51883;SDS011;37915;53.254;6.598;2023-07-30T05:52:39;14.20;;;3.42;;
51883;SDS011;37915;53.254;6.598;2023-07-30T05:55:05;12.95;;;3.28;;
51883;SDS011;37915;53.254;6.598;2023-07-30T05:57:31;15.25;;;3.65;;
51883;SDS011;37915;53.254;6.598;2023-07-30T05:59:56;12.98;;;3.75;;
51883;SDS011;37915;53.254;6.598;2023-07-30T06:02:22;15.77;;;3.15;;
51883;SDS011;37915;53.254;6.598;2023-07-30T06:04:47;11.98;;;3.28;;
51883;SDS011;37915;53.254;6.598;2023-07-30T06:07:13;12.40;;;3.58;;
51883;SDS011;37915;53.254;6.598;2023-07-30T06:09:39;14.60;;;3.63;;
51883;SDS011;37915;53.254;6.598;2023-07-30T06:12:05;10.48;;;2.63;;
51883;SDS011;37915;53.254;6.598;2023-07-30T06:14:31;15.02;;;4.15;;
51883;SDS011;37915;53.254;6.598;2023-07-30T06:16:56;11.75;;;3.08;;
51883;SDS011;37915;53.254;6.598;2023-07-30T06:19:22;16.50;;;3.60;;
51883;SDS011;37915;53.254;6.598;2023-07-30T06:21:48;9.00;;;3.30;;
51883;SDS011;37915;53.254;6.598;2023-07-30T06:24:13;14.35;;;3.58;;
51883;SDS011;37915;53.254;6.598;2023-07-30T06:26:39;12.80;;;3.40;;
51883;SDS011;37915;53.254;6.598;2023-07-30T06:29:05;13.88;;;3.83;;
51883;SDS011;37915;53.254;6.598;2023-07-30T06:31:31;13.10;;;2.90;;
51883;SDS011;37915;53.254;6.598;2023-07-30T06:33:56;13.48;;;4.15;;
51883;SDS011;37915;53.254;6.598;2023-07-30T06:36:22;13.32;;;2.80;;
51883;SDS011;37915;53.254;6.598;2023-07-30T06:38:47;10.45;;;3.30;;
51883;SDS011;37915;53.254;6.598;2023-07-30T06:41:13;10.82;;;3.38;;
51883;SDS011;37915;53.254;6.598;2023-07-30T06:43:39;14.15;;;2.90;;
51883;SDS011;37915;53.254;6.598;2023-07-30T06:46:05;21.88;;;3.33;;
51883;SDS011;37915;53.254;6.598;2023-07-30T06:48:30;13.57;;;2.97;;
51883;SDS011;37915;53.254;6.598;2023-07-30T06:50:56;9.98;;;3.50;;
51883;SDS011;37915;53.254;6.598;2023-07-30T06:53:22;17.75;;;4.05;;
51883;SDS011;37915;53.254;6.598;2023-07-30T06:55:48;11.73;;;3.17;;
51883;SDS011;37915;53.254;6.598;2023-07-30T06:58:13;10.93;;;3.08;;
51883;SDS011;37915;53.254;6.598;2023-07-30T07:00:39;12.30;;;3.67;;
51883;SDS011;37915;53.254;6.598;2023-07-30T07:03:05;12.05;;;3.88;;
51883;SDS011;37915;53.254;6.598;2023-07-30T07:05:31;12.30;;;2.92;;
51883;SDS011;37915;53.254;6.598;2023-07-30T07:07:56;14.60;;;4.13;;
51883;SDS011;37915;53.254;6.598;2023-07-30T07:10:22;9.40;;;3.45;;
51883;SDS011;37915;53.254;6.598;2023-07-30T07:12:47;12.73;;;3.78;;
51883;SDS011;37915;53.254;6.598;2023-07-30T07:15:13;15.95;;;4.10;;
51883;SDS011;37915;53.254;6.598;2023-07-30T07:17:39;12.68;;;3.65;;
51883;SDS011;37915;53.254;6.598;2023-07-30T07:20:05;10.15;;;3.08;;
51883;SDS011;37915;53.254;6.598;2023-07-30T07:22:32;15.15;;;3.50;;
51883;SDS011;37915;53.254;6.598;2023-07-30T07:24:58;9.48;;;2.92;;
51883;SDS011;37915;53.254;6.598;2023-07-30T07:27:24;15.52;;;3.22;;
51883;SDS011;37915;53.254;6.598;2023-07-30T07:29:51;13.15;;;3.45;;
51883;SDS011;37915;53.254;6.598;2023-07-30T07:32:17;12.77;;;3.67;;
51883;SDS011;37915;53.254;6.598;2023-07-30T07:34:46;11.10;;;3.40;;
51883;SDS011;37915;53.254;6.598;2023-07-30T07:37:15;9.07;;;2.90;;
51883;SDS011;37915;53.254;6.598;2023-07-30T07:39:43;11.52;;;3.15;;
51883;SDS011;37915;53.254;6.598;2023-07-30T07:42:09;10.63;;;3.15;;
51883;SDS011;37915;53.254;6.598;2023-07-30T07:44:35;11.02;;;2.80;;
51883;SDS011;37915;53.254;6.598;2023-07-30T07:47:01;10.40;;;3.10;;
51883;SDS011;37915;53.254;6.598;2023-07-30T07:49:27;10.00;;;2.80;;
51883;SDS011;37915;53.254;6.598;2023-07-30T07:51:53;9.20;;;2.38;;
51883;SDS011;37915;53.254;6.598;2023-07-30T07:54:18;9.73;;;2.30;;
51883;SDS011;37915;53.254;6.598;2023-07-30T07:56:44;11.35;;;2.40;;
51883;SDS011;37915;53.254;6.598;2023-07-30T07:59:10;14.48;;;2.95;;
51883;SDS011;37915;53.254;6.598;2023-07-30T08:01:35;11.82;;;2.50;;
51883;SDS011;37915;53.254;6.598;2023-07-30T08:04:01;10.77;;;2.35;;
51883;SDS011;37915;53.254;6.598;2023-07-30T08:06:27;9.75;;;2.25;;
51883;SDS011;37915;53.254;6.598;2023-07-30T08:08:53;8.23;;;2.45;;
51883;SDS011;37915;53.254;6.598;2023-07-30T08:11:18;11.20;;;2.78;;
51883;SDS011;37915;53.254;6.598;2023-07-30T08:13:44;12.10;;;2.85;;
51883;SDS011;37915;53.254;6.598;2023-07-30T08:16:11;10.18;;;2.40;;
51883;SDS011;37915;53.254;6.598;2023-07-30T08:18:36;7.22;;;2.17;;
51883;SDS011;37915;53.254;6.598;2023-07-30T08:21:02;10.82;;;3.00;;
51883;SDS011;37915;53.254;6.598;2023-07-30T08:23:28;13.55;;;2.55;;
51883;SDS011;37915;53.254;6.598;2023-07-30T08:25:53;8.65;;;2.35;;
51883;SDS011;37915;53.254;6.598;2023-07-30T08:28:19;10.07;;;2.45;;
51883;SDS011;37915;53.254;6.598;2023-07-30T08:30:45;9.85;;;2.78;;
51883;SDS011;37915;53.254;6.598;2023-07-30T08:33:11;7.20;;;2.22;;
51883;SDS011;37915;53.254;6.598;2023-07-30T08:35:36;6.22;;;2.30;;
51883;SDS011;37915;53.254;6.598;2023-07-30T08:38:02;8.70;;;2.88;;
51883;SDS011;37915;53.254;6.598;2023-07-30T08:40:28;10.68;;;2.22;;
51883;SDS011;37915;53.254;6.598;2023-07-30T08:42:54;9.57;;;2.25;;
51883;SDS011;37915;53.254;6.598;2023-07-30T08:45:20;6.90;;;1.98;;
51883;SDS011;37915;53.254;6.598;2023-07-30T08:47:45;11.43;;;2.67;;
51883;SDS011;37915;53.254;6.598;2023-07-30T08:50:12;10.85;;;2.58;;
51883;SDS011;37915;53.254;6.598;2023-07-30T08:52:39;9.00;;;2.22;;
51883;SDS011;37915;53.254;6.598;2023-07-30T08:55:06;7.65;;;2.30;;
51883;SDS011;37915;53.254;6.598;2023-07-30T08:57:32;10.15;;;2.35;;
51883;SDS011;37915;53.254;6.598;2023-07-30T09:02:30;6.00;;;2.05;;
51883;SDS011;37915;53.254;6.598;2023-07-30T09:05:03;8.63;;;2.42;;
51883;SDS011;37915;53.254;6.598;2023-07-30T09:07:30;10.70;;;2.65;;
51883;SDS011;37915;53.254;6.598;2023-07-30T09:09:55;11.70;;;2.72;;
51883;SDS011;37915;53.254;6.598;2023-07-30T09:12:34;7.10;;;2.13;;
51883;SDS011;37915;53.254;6.598;2023-07-30T09:15:04;10.18;;;2.50;;
51883;SDS011;37915;53.254;6.598;2023-07-30T09:17:31;12.43;;;2.60;;
51883;SDS011;37915;53.254;6.598;2023-07-30T09:20:02;10.05;;;2.70;;
51883;SDS011;37915;53.254;6.598;2023-07-30T09:22:29;9.43;;;2.53;;
51883;SDS011;37915;53.254;6.598;2023-07-30T09:25:06;8.10;;;2.10;;
51883;SDS011;37915;53.254;6.598;2023-07-30T09:27:32;10.50;;;2.38;;
51883;SDS011;37915;53.254;6.598;2023-07-30T09:30:00;5.95;;;2.30;;
51883;SDS011;37915;53.254;6.598;2023-07-30T09:32:28;6.07;;;1.70;;
51883;SDS011;37915;53.254;6.598;2023-07-30T09:34:54;7.10;;;1.80;;
51883;SDS011;37915;53.254;6.598;2023-07-30T09:37:20;6.70;;;1.73;;
51883;SDS011;37915;53.254;6.598;2023-07-30T09:39:49;8.68;;;2.03;;
51883;SDS011;37915;53.254;6.598;2023-07-30T09:42:15;7.82;;;1.60;;
51883;SDS011;37915;53.254;6.598;2023-07-30T09:44:41;7.03;;;1.92;;
51883;SDS011;37915;53.254;6.598;2023-07-30T09:47:10;5.03;;;1.77;;
51883;SDS011;37915;53.254;6.598;2023-07-30T09:49:36;7.32;;;1.98;;
51883;SDS011;37915;53.254;6.598;2023-07-30T09:52:03;20.95;;;3.28;;
51883;SDS011;37915;53.254;6.598;2023-07-30T09:54:33;12.90;;;2.10;;
51883;SDS011;37915;53.254;6.598;2023-07-30T09:56:59;6.00;;;1.98;;
51883;SDS011;37915;53.254;6.598;2023-07-30T09:59:24;6.35;;;1.40;;
51883;SDS011;37915;53.254;6.598;2023-07-30T10:01:50;6.28;;;1.83;;
51883;SDS011;37915;53.254;6.598;2023-07-30T10:04:20;4.10;;;1.33;;
51883;SDS011;37915;53.254;6.598;2023-07-30T10:06:55;8.10;;;1.85;;
51883;SDS011;37915;53.254;6.598;2023-07-30T10:09:27;5.47;;;1.48;;
51883;SDS011;37915;53.254;6.598;2023-07-30T10:11:55;10.80;;;2.00;;
51883;SDS011;37915;53.254;6.598;2023-07-30T10:14:23;7.03;;;1.77;;
51883;SDS011;37915;53.254;6.598;2023-07-30T10:16:51;5.15;;;1.50;;
51883;SDS011;37915;53.254;6.598;2023-07-30T10:19:26;8.52;;;1.95;;
51883;SDS011;37915;53.254;6.598;2023-07-30T10:21:57;7.82;;;1.92;;
51883;SDS011;37915;53.254;6.598;2023-07-30T10:24:25;4.82;;;1.55;;
51883;SDS011;37915;53.254;6.598;2023-07-30T10:26:51;7.93;;;1.70;;
51883;SDS011;37915;53.254;6.598;2023-07-30T10:29:22;5.93;;;1.88;;
51883;SDS011;37915;53.254;6.598;2023-07-30T10:31:52;7.85;;;1.80;;
51883;SDS011;37915;53.254;6.598;2023-07-30T10:34:43;8.43;;;1.70;;
51883;SDS011;37915;53.254;6.598;2023-07-30T10:37:10;5.55;;;1.50;;
51883;SDS011;37915;53.254;6.598;2023-07-30T10:39:42;6.15;;;1.60;;
51883;SDS011;37915;53.254;6.598;2023-07-30T10:42:08;6.57;;;1.90;;
51883;SDS011;37915;53.254;6.598;2023-07-30T10:44:34;5.10;;;1.80;;
51883;SDS011;37915;53.254;6.598;2023-07-30T10:47:02;5.20;;;1.55;;
51883;SDS011;37915;53.254;6.598;2023-07-30T10:49:29;8.40;;;1.80;;
51883;SDS011;37915;53.254;6.598;2023-07-30T10:51:56;5.57;;;1.80;;
51883;SDS011;37915;53.254;6.598;2023-07-30T10:54:25;4.82;;;1.77;;
51883;SDS011;37915;53.254;6.598;2023-07-30T10:56:51;11.85;;;2.13;;
51883;SDS011;37915;53.254;6.598;2023-07-30T10:59:17;7.70;;;2.42;;
51883;SDS011;37915;53.254;6.598;2023-07-30T11:01:44;10.32;;;2.65;;
51883;SDS011;37915;53.254;6.598;2023-07-30T11:04:14;7.90;;;2.05;;
51883;SDS011;37915;53.254;6.598;2023-07-30T11:06:45;7.95;;;1.85;;
51883;SDS011;37915;53.254;6.598;2023-07-30T11:11:46;7.30;;;2.53;;
51883;SDS011;37915;53.254;6.598;2023-07-30T11:14:16;11.57;;;2.05;;
51883;SDS011;37915;53.254;6.598;2023-07-30T11:16:58;6.30;;;1.90;;
51883;SDS011;37915;53.254;6.598;2023-07-30T11:19:24;7.93;;;2.10;;
51883;SDS011;37915;53.254;6.598;2023-07-30T11:21:55;11.00;;;2.00;;
51883;SDS011;37915;53.254;6.598;2023-07-30T11:24:34;11.40;;;2.30;;
51883;SDS011;37915;53.254;6.598;2023-07-30T11:27:00;11.68;;;2.22;;
51883;SDS011;37915;53.254;6.598;2023-07-30T11:29:26;7.65;;;1.90;;
51883;SDS011;37915;53.254;6.598;2023-07-30T11:31:55;9.23;;;1.92;;
51883;SDS011;37915;53.254;6.598;2023-07-30T11:34:22;8.85;;;2.35;;
51883;SDS011;37915;53.254;6.598;2023-07-30T11:36:48;7.53;;;1.83;;
51883;SDS011;37915;53.254;6.598;2023-07-30T11:39:14;6.18;;;1.95;;
51883;SDS011;37915;53.254;6.598;2023-07-30T11:41:40;6.43;;;2.00;;
51883;SDS011;37915;53.254;6.598;2023-07-30T11:44:06;12.07;;;2.70;;
51883;SDS011;37915;53.254;6.598;2023-07-30T11:46:31;7.20;;;1.98;;
51883;SDS011;37915;53.254;6.598;2023-07-30T11:49:10;8.18;;;2.17;;
51883;SDS011;37915;53.254;6.598;2023-07-30T11:51:37;8.45;;;2.08;;
51883;SDS011;37915;53.254;6.598;2023-07-30T11:54:03;7.30;;;1.70;;
51883;SDS011;37915;53.254;6.598;2023-07-30T11:56:29;8.35;;;1.92;;
51883;SDS011;37915;53.254;6.598;2023-07-30T11:58:57;8.40;;;2.17;;
51883;SDS011;37915;53.254;6.598;2023-07-30T12:01:25;7.28;;;1.73;;
51883;SDS011;37915;53.254;6.598;2023-07-30T12:03:54;9.40;;;2.95;;
51883;SDS011;37915;53.254;6.598;2023-07-30T12:06:24;11.25;;;2.60;;
51883;SDS011;37915;53.254;6.598;2023-07-30T12:09:09;8.25;;;2.20;;
51883;SDS011;37915;53.254;6.598;2023-07-30T12:17:14;7.38;;;1.60;;
51883;SDS011;37915;53.254;6.598;2023-07-30T12:19:40;7.72;;;1.35;;
51883;SDS011;37915;53.254;6.598;2023-07-30T12:22:06;8.48;;;1.80;;
51883;SDS011;37915;53.254;6.598;2023-07-30T12:24:32;8.38;;;1.73;;
51883;SDS011;37915;53.254;6.598;2023-07-30T12:26:58;7.72;;;2.65;;
51883;SDS011;37915;53.254;6.598;2023-07-30T12:29:24;7.10;;;2.30;;
51883;SDS011;37915;53.254;6.598;2023-07-30T12:31:50;9.35;;;1.83;;
51883;SDS011;37915;53.254;6.598;2023-07-30T12:34:18;6.05;;;1.85;;
51883;SDS011;37915;53.254;6.598;2023-07-30T12:36:44;7.07;;;1.58;;
51883;SDS011;37915;53.254;6.598;2023-07-30T12:39:10;10.35;;;2.30;;
51883;SDS011;37915;53.254;6.598;2023-07-30T12:41:36;7.57;;;1.58;;
51883;SDS011;37915;53.254;6.598;2023-07-30T12:44:01;7.00;;;1.70;;
51883;SDS011;37915;53.254;6.598;2023-07-30T12:46:28;9.60;;;2.25;;
51883;SDS011;37915;53.254;6.598;2023-07-30T12:48:55;6.78;;;1.70;;
51883;SDS011;37915;53.254;6.598;2023-07-30T12:51:21;7.22;;;1.63;;
51883;SDS011;37915;53.254;6.598;2023-07-30T12:53:47;8.23;;;1.85;;
51883;SDS011;37915;53.254;6.598;2023-07-30T12:56:13;8.55;;;1.92;;
51883;SDS011;37915;53.254;6.598;2023-07-30T12:58:40;5.88;;;1.75;;
51883;SDS011;37915;53.254;6.598;2023-07-30T13:01:06;7.35;;;1.75;;
51883;SDS011;37915;53.254;6.598;2023-07-30T13:03:32;5.28;;;1.60;;
51883;SDS011;37915;53.254;6.598;2023-07-30T13:05:58;6.70;;;1.83;;
51883;SDS011;37915;53.254;6.598;2023-07-30T13:08:24;7.53;;;2.03;;
51883;SDS011;37915;53.254;6.598;2023-07-30T13:10:49;7.78;;;1.45;;
51883;SDS011;37915;53.254;6.598;2023-07-30T13:13:15;6.35;;;1.50;;
51883;SDS011;37915;53.254;6.598;2023-07-30T13:15:41;7.95;;;1.40;;
51883;SDS011;37915;53.254;6.598;2023-07-30T13:18:06;4.97;;;1.38;;
51883;SDS011;37915;53.254;6.598;2023-07-30T13:20:32;6.93;;;1.60;;
51883;SDS011;37915;53.254;6.598;2023-07-30T13:22:58;5.05;;;1.27;;
51883;SDS011;37915;53.254;6.598;2023-07-30T13:25:23;6.82;;;1.55;;
51883;SDS011;37915;53.254;6.598;2023-07-30T13:27:49;40.58;;;3.15;;
51883;SDS011;37915;53.254;6.598;2023-07-30T13:30:15;7.47;;;1.38;;
51883;SDS011;37915;53.254;6.598;2023-07-30T13:32:41;7.10;;;1.75;;
51883;SDS011;37915;53.254;6.598;2023-07-30T13:35:06;6.32;;;1.52;;
51883;SDS011;37915;53.254;6.598;2023-07-30T13:37:32;5.25;;;1.30;;
51883;SDS011;37915;53.254;6.598;2023-07-30T13:39:58;12.52;;;1.75;;
51883;SDS011;37915;53.254;6.598;2023-07-30T13:42:24;5.85;;;1.40;;
51883;SDS011;37915;53.254;6.598;2023-07-30T13:44:49;8.02;;;1.80;;
51883;SDS011;37915;53.254;6.598;2023-07-30T13:47:16;9.82;;;1.65;;
51883;SDS011;37915;53.254;6.598;2023-07-30T13:49:42;7.50;;;1.67;;
51883;SDS011;37915;53.254;6.598;2023-07-30T13:52:07;8.15;;;1.92;;
51883;SDS011;37915;53.254;6.598;2023-07-30T13:54:33;6.18;;;1.67;;
51883;SDS011;37915;53.254;6.598;2023-07-30T13:57:01;5.68;;;1.65;;
51883;SDS011;37915;53.254;6.598;2023-07-30T13:59:28;8.07;;;1.60;;
51883;SDS011;37915;53.254;6.598;2023-07-30T14:01:54;5.03;;;1.60;;
51883;SDS011;37915;53.254;6.598;2023-07-30T14:04:19;6.43;;;1.63;;
51883;SDS011;37915;53.254;6.598;2023-07-30T14:06:45;6.78;;;1.60;;
51883;SDS011;37915;53.254;6.598;2023-07-30T14:09:10;8.38;;;1.17;;
51883;SDS011;37915;53.254;6.598;2023-07-30T14:11:36;4.68;;;1.08;;
51883;SDS011;37915;53.254;6.598;2023-07-30T14:14:03;5.18;;;1.10;;
51883;SDS011;37915;53.254;6.598;2023-07-30T14:16:29;4.47;;;1.33;;
51883;SDS011;37915;53.254;6.598;2023-07-30T14:18:55;5.05;;;1.40;;
51883;SDS011;37915;53.254;6.598;2023-07-30T14:21:21;5.07;;;1.70;;
51883;SDS011;37915;53.254;6.598;2023-07-30T14:23:46;4.72;;;1.30;;
51883;SDS011;37915;53.254;6.598;2023-07-30T14:26:12;5.72;;;1.27;;
51883;SDS011;37915;53.254;6.598;2023-07-30T14:28:38;6.53;;;1.60;;
51883;SDS011;37915;53.254;6.598;2023-07-30T14:31:03;4.90;;;1.45;;
51883;SDS011;37915;53.254;6.598;2023-07-30T14:33:29;7.45;;;1.92;;
51883;SDS011;37915;53.254;6.598;2023-07-30T14:35:55;6.47;;;1.40;;
51883;SDS011;37915;53.254;6.598;2023-07-30T14:38:20;8.23;;;1.65;;
51883;SDS011;37915;53.254;6.598;2023-07-30T14:40:46;6.65;;;1.45;;
51883;SDS011;37915;53.254;6.598;2023-07-30T14:43:12;6.75;;;1.50;;
51883;SDS011;37915;53.254;6.598;2023-07-30T14:45:37;5.80;;;1.50;;
51883;SDS011;37915;53.254;6.598;2023-07-30T14:48:03;6.72;;;1.92;;